Time;durP1;ratioP1;P1;durP2;ratioP2;P2;SDS_P1;SDS_P2;PMS_P1;PMS_P2;Temp;Humidity;BMP_temperature;BMP_pressure;BME280_temperature;BME280_humidity;BME280_pressure;Samples;Min_cycle;Max_cycle;Signal;HPM_P1;HPM_P2
2022/04/21 04:46:36;;;;;;;;;14.50;9.50;;;;;12.33;41.48;100737.47;2405687;28;45536;-81
2022/04/21 04:47:46;;;;;;;;;15.25;11.00;;;;;12.33;41.85;100743.59;2394141;28;48509;-80
2022/04/21 04:48:56;;;;;;;;;11.25;9.75;;;;;12.35;42.17;100739.13;2392192;28;44814;-85
2022/04/21 04:50:08;;;;;;;;;13.00;9.75;;;;;12.38;42.42;100743.41;2395796;28;45241;-85
2022/04/21 04:51:18;;;;;;;;;13.75;10.00;;;;;12.42;42.21;100746.81;2401168;28;45324;-84
2022/04/21 04:52:28;;;;;;;;;12.50;12.50;;;;;12.42;41.47;100739.72;2392314;28;48175;-84
2022/04/21 04:53:39;;;;;;;;;11.75;11.00;;;;;12.43;41.38;100745.88;2402098;28;45323;-84
2022/04/21 04:54:49;;;;;;;;;13.75;13.75;;;;;12.45;42.09;100747.50;2394186;28;47089;-87
2022/04/21 04:55:59;;;;;;;;;11.25;10.50;;;;;12.46;41.08;100740.47;2402720;28;45327;-86
2022/04/21 04:57:10;;;;;;;;;11.50;11.50;;;;;12.48;41.28;100749.16;2397474;28;49503;-86
2022/04/21 04:58:20;;;;;;;;;13.75;11.75;;;;;12.49;41.67;100741.19;2402619;28;44727;-86
2022/04/21 04:59:30;;;;;;;;;10.50;9.50;;;;;12.51;41.69;100749.06;2410210;28;46985;-87
2022/04/21 05:00:41;;;;;;;;;11.50;10.75;;;;;12.53;41.55;100741.06;2408436;28;45402;-87
2022/04/21 05:01:51;;;;;;;;;10.25;10.25;;;;;12.56;41.01;100746.22;2399105;28;47264;-86
2022/04/21 05:03:01;;;;;;;;;13.25;10.50;;;;;12.57;40.90;100743.50;2395150;28;45163;-86
2022/04/21 05:04:14;;;;;;;;;13.75;10.25;;;;;12.56;40.85;100740.94;2408713;28;48210;-83
2022/04/21 05:05:25;;;;;;;;;12.75;9.00;;;;;12.59;41.27;100738.19;2395049;28;45428;-85
2022/04/21 05:06:36;;;;;;;;;10.25;10.25;;;;;12.62;41.20;100748.59;2386174;28;48090;-85
2022/04/21 05:07:46;;;;;;;;;11.25;11.25;;;;;12.62;40.68;100740.69;2386122;28;45256;-85
2022/04/21 05:08:57;;;;;;;;;11.75;9.50;;;;;12.64;41.49;100743.28;2401643;28;47503;-85
2022/04/21 05:10:08;;;;;;;;;10.25;10.25;;;;;12.65;41.08;100750.25;2399762;28;45230;-85
2022/04/21 05:11:18;;;;;;;;;11.00;9.25;;;;;12.64;40.88;100738.00;2395912;28;45656;-85
2022/04/21 05:12:29;;;;;;;;;9.75;9.75;;;;;12.66;41.32;100750.19;2402895;28;45329;-85
2022/04/21 05:13:39;;;;;;;;;12.25;10.00;;;;;12.68;41.83;100752.75;2402950;28;45374;-85
2022/04/21 05:14:51;;;;;;;;;13.25;10.50;;;;;12.70;41.09;100748.28;2406075;28;45363;-85
2022/04/21 05:16:02;;;;;;;;;11.50;11.50;;;;;12.70;40.97;100751.78;2405237;28;46463;-86
2022/04/21 05:17:12;;;;;;;;;10.00;8.75;;;;;12.72;41.51;100754.34;2394758;28;45306;-86
2022/04/21 05:18:22;;;;;;;;;10.50;10.50;;;;;12.74;41.12;100754.28;2392848;28;46913;-86
2022/04/21 05:19:33;;;;;;;;;10.00;9.75;;;;;12.75;40.95;100751.59;2404160;28;44714;-86
2022/04/21 05:20:43;;;;;;;;;12.50;11.50;;;;;12.76;40.54;100755.94;2395078;28;48097;-86
2022/04/21 05:22:04;;;;;;;;;12.25;11.25;;;;;12.76;40.93;100755.94;2402194;28;44629;-88
2022/04/21 05:23:17;;;;;;;;;10.25;10.00;;;;;12.76;41.14;100750.69;2394850;28;48209;-87
2022/04/21 05:24:31;;;;;;;;;12.25;9.75;;;;;12.78;41.92;100746.19;2405382;28;44648;-89
2022/04/21 05:25:42;;;;;;;;;15.00;10.50;;;;;12.79;41.02;100747.88;2407738;28;45897;-88
2022/04/21 05:26:53;;;;;;;;;15.00;11.25;;;;;12.80;41.57;100744.34;2407423;28;45506;-88
2022/04/21 05:28:03;;;;;;;;;14.00;12.50;;;;;12.82;41.95;100752.19;2414134;28;45700;-86
2022/04/21 05:30:55;;;;;;;;;8.50;7.75;;;;;12.85;41.57;100753.81;2406519;28;45365;-85
2022/04/21 05:32:06;;;;;;;;;13.75;11.75;;;;;12.81;41.10;100746.06;2396415;28;44795;-89
2022/04/21 05:33:25;;;;;;;;;11.25;11.25;;;;;12.80;40.71;100749.63;2397952;28;45468;-87
2022/04/21 05:34:35;;;;;;;;;14.50;13.00;;;;;12.79;40.64;100753.16;2406447;28;45419;-86
2022/04/21 05:35:46;;;;;;;;;14.25;10.50;;;;;12.78;40.44;100751.47;2399469;28;47179;-90
2022/04/21 05:37:00;;;;;;;;;10.75;10.50;;;;;12.74;40.01;100749.84;2401804;28;45908;-91
2022/04/21 05:38:15;;;;;;;;;13.25;11.50;;;;;12.70;40.48;100745.63;2404842;28;45590;-84
2022/04/21 05:39:27;;;;;;;;;11.00;11.00;;;;;12.68;40.59;100748.34;2396262;28;45286;-83
2022/04/21 05:40:37;;;;;;;;;13.25;10.00;;;;;12.68;41.24;100745.72;2404560;28;47343;-85
2022/04/21 05:41:48;;;;;;;;;10.75;10.75;;;;;12.70;41.18;100746.50;2392888;28;45271;-86
2022/04/21 05:43:07;;;;;;;;;13.25;9.75;;;;;12.72;41.11;100746.44;2398376;28;46862;-87
2022/04/21 05:44:18;;;;;;;;;12.75;10.75;;;;;12.74;40.79;100739.31;2393745;28;45480;-88
2022/04/21 05:45:29;;;;;;;;;13.00;13.00;;;;;12.77;40.91;100748.88;2395869;28;47344;-93
2022/04/21 05:46:40;;;;;;;;;14.25;12.00;;;;;12.79;41.12;100753.16;2411397;28;45212;-92
2022/04/21 05:47:51;;;;;;;;;15.50;15.00;;;;;12.81;40.99;100743.44;2408832;28;46381;-88
2022/04/21 05:49:02;;;;;;;;;15.00;14.25;;;;;12.83;40.72;100740.72;2401356;28;45310;-88
2022/04/21 05:50:13;;;;;;;;;11.75;11.75;;;;;12.85;40.97;100745.91;2399767;28;46234;-86
2022/04/21 05:51:24;;;;;;;;;13.75;12.75;;;;;12.87;41.46;100749.34;2397446;28;45962;-85
2022/04/21 05:52:38;;;;;;;;;16.50;11.00;;;;;12.87;40.78;100737.00;2395368;28;45299;-85
2022/04/21 05:53:49;;;;;;;;;13.00;11.25;;;;;12.88;40.40;100746.66;2392979;28;44715;-86
2022/04/21 05:54:59;;;;;;;;;18.00;12.25;;;;;12.87;40.30;100738.78;2402946;28;45292;-86
2022/04/21 05:56:10;;;;;;;;;11.75;11.75;;;;;12.87;40.81;100742.28;2411361;28;45278;-86
2022/04/21 05:57:20;;;;;;;;;9.00;8.00;;;;;12.88;40.71;100740.50;2411574;28;45494;-86
2022/04/21 05:58:31;;;;;;;;;16.00;12.25;;;;;12.90;40.75;100738.66;2400712;28;44832;-85
2022/04/21 05:59:42;;;;;;;;;14.50;10.50;;;;;12.92;40.86;100737.69;2405261;28;45454;-86
2022/04/21 06:00:52;;;;;;;;;12.00;10.75;;;;;12.94;40.82;100732.31;2402122;28;45289;-85
2022/04/21 06:02:04;;;;;;;;;15.00;12.25;;;;;12.96;40.38;100732.28;2394927;28;46359;-84
2022/04/21 06:03:15;;;;;;;;;11.00;10.25;;;;;12.96;41.03;100734.91;2392813;28;46767;-85
2022/04/21 06:04:25;;;;;;;;;13.00;10.75;;;;;12.97;41.47;100732.19;2400875;28;45489;-85
2022/04/21 06:05:36;;;;;;;;;13.00;11.50;;;;;12.98;40.34;100736.56;2412036;28;44632;-86
2022/04/21 06:06:46;;;;;;;;;15.75;12.00;;;;;13.00;40.96;100724.16;2409614;28;45252;-85
2022/04/21 06:07:56;;;;;;;;;11.00;11.00;;;;;13.02;40.78;100726.72;2402779;28;45222;-86
2022/04/21 06:09:07;;;;;;;;;9.50;9.50;;;;;13.04;40.49;100727.50;2392284;28;48391;-87
2022/04/21 06:10:17;;;;;;;;;13.25;9.50;;;;;13.04;41.24;100717.81;2400744;28;45234;-85
2022/04/21 06:11:27;;;;;;;;;11.75;10.50;;;;;13.06;40.39;100728.31;2397415;28;47024;-85
2022/04/21 06:12:38;;;;;;;;;11.25;10.75;;;;;13.05;40.25;100724.81;2396156;28;44678;-86
2022/04/21 06:13:50;;;;;;;;;17.25;11.75;;;;;13.04;41.00;100719.59;2410130;28;45463;-84
2022/04/21 06:15:00;;;;;;;;;12.50;10.75;;;;;13.05;41.56;100730.09;2401697;28;44654;-85
2022/04/21 06:16:10;;;;;;;;;11.25;10.00;;;;;13.08;41.24;100728.25;2403342;28;45404;-84
2022/04/21 06:17:21;;;;;;;;;7.00;7.00;;;;;13.08;41.49;100722.97;2407589;28;45473;-85
2022/04/21 06:18:31;;;;;;;;;12.50;9.75;;;;;13.10;40.86;100721.13;2396728;28;47226;-85
2022/04/21 06:19:42;;;;;;;;;14.75;11.75;;;;;13.11;40.69;100736.03;2391792;28;44763;-84
2022/04/21 06:20:55;;;;;;;;;12.75;10.00;;;;;13.11;41.64;100726.31;2395285;28;45353;-86
2022/04/21 06:22:05;;;;;;;;;14.00;11.25;;;;;13.14;41.05;100725.31;2402531;28;44632;-85
2022/04/21 06:23:16;;;;;;;;;16.75;12.25;;;;;13.14;40.72;100728.81;2402587;28;45496;-85
2022/04/21 06:24:27;;;;;;;;;15.00;13.00;;;;;13.12;40.42;100725.41;2406311;28;45456;-84
2022/04/21 06:25:38;;;;;;;;;14.50;12.75;;;;;13.13;41.18;100726.25;2411078;28;45262;-85
2022/04/21 06:26:48;;;;;;;;;10.75;10.75;;;;;13.16;40.83;100723.50;2408026;28;44774;-84
2022/04/21 06:27:58;;;;;;;;;16.00;11.25;;;;;13.17;40.71;100733.09;2392314;28;47332;-85
2022/04/21 06:29:09;;;;;;;;;12.25;11.75;;;;;13.18;40.77;100733.97;2397357;28;44844;-85
2022/04/21 06:30:20;;;;;;;;;15.25;10.75;;;;;13.18;41.43;100734.84;2410780;28;46466;-85
2022/04/21 06:31:30;;;;;;;;;12.00;11.50;;;;;13.20;40.94;100716.28;2405930;28;45289;-85
2022/04/21 06:32:41;;;;;;;;;13.00;12.00;;;;;13.21;40.57;100726.75;2404142;28;45349;-85
2022/04/21 06:33:52;;;;;;;;;15.00;12.25;;;;;13.21;40.33;100729.41;2405821;28;45250;-86
2022/04/21 06:35:03;;;;;;;;;12.00;11.25;;;;;13.20;40.27;100724.22;2410137;28;47306;-85
2022/04/21 06:36:14;;;;;;;;;14.75;13.00;;;;;13.20;40.75;100726.84;2412772;28;44720;-85
2022/04/21 06:37:24;;;;;;;;;14.50;11.50;;;;;13.22;41.01;100722.34;2403733;28;45279;-85
2022/04/21 06:38:34;;;;;;;;;15.00;14.25;;;;;13.24;41.11;100723.13;2410331;28;45297;-85
2022/04/21 06:39:45;;;;;;;;;12.25;12.00;;;;;13.26;41.05;100721.31;2411746;28;45590;-85
2022/04/21 06:40:55;;;;;;;;;14.00;11.50;;;;;13.30;41.74;100719.38;2413841;28;45163;-85
2022/04/21 06:42:06;;;;;;;;;10.00;10.00;;;;;13.31;41.26;100723.75;2413546;28;45979;-85
2022/04/21 06:48:02;;;;;;;;;11.75;9.00;;;;;13.36;40.87;100716.44;2410427;28;45237;-85
2022/04/21 06:49:13;;;;;;;;;11.25;11.25;;;;;13.39;40.94;100717.19;2412946;28;44669;-86
2022/04/21 06:50:23;;;;;;;;;11.75;11.75;;;;;13.39;40.64;100714.53;2397196;28;47418;-85
2022/04/21 06:51:34;;;;;;;;;14.50;11.00;;;;;13.41;40.91;100718.91;2401306;28;45339;-82
2022/04/21 06:52:44;;;;;;;;;12.75;11.50;;;;;13.40;40.34;100707.47;2396418;28;47212;-84
2022/04/21 06:53:55;;;;;;;;;10.75;10.75;;;;;13.41;40.63;100706.53;2400967;28;45408;-84
2022/04/21 06:55:05;;;;;;;;;9.25;8.25;;;;;13.43;41.32;100715.25;2397389;28;47232;-85
2022/04/21 06:56:16;;;;;;;;;9.50;9.50;;;;;13.45;40.74;100710.78;2387104;28;45499;-83
2022/04/21 06:57:26;;;;;;;;;11.25;11.25;;;;;13.45;40.69;100718.69;2402654;28;46034;-85
2022/04/21 06:58:37;;;;;;;;;9.50;9.50;;;;;13.43;40.40;100709.97;2411682;28;45258;-84
2022/04/21 06:59:47;;;;;;;;;14.00;12.50;;;;;13.43;40.31;100714.41;2411940;28;46395;-84
2022/04/21 07:00:57;;;;;;;;;13.50;10.25;;;;;13.41;40.48;100709.16;2411140;28;44719;-84
2022/04/21 07:02:10;;;;;;;;;13.75;12.75;;;;;13.42;40.70;100707.41;2400363;28;48630;-84
2022/04/21 07:03:20;;;;;;;;;10.75;10.50;;;;;13.43;40.83;100709.13;2395711;28;45666;-84
2022/04/21 07:04:30;;;;;;;;;5.50;4.25;;;;;13.45;40.52;100700.22;2395199;28;47296;-83
2022/04/21 07:05:41;;;;;;;;;14.50;12.00;;;;;13.45;40.53;100708.13;2404356;28;45379;-82
2022/04/21 07:06:51;;;;;;;;;9.25;8.00;;;;;13.47;41.69;100706.28;2410271;28;46418;-84
2022/04/21 07:08:01;;;;;;;;;8.50;7.50;;;;;13.50;41.41;100706.13;2408993;28;45487;-84
2022/04/21 07:09:12;;;;;;;;;12.25;10.00;;;;;13.55;41.40;100700.63;2411381;28;46817;-83
2022/04/21 07:10:23;;;;;;;;;13.00;11.75;;;;;13.59;40.78;100704.00;2410483;28;44796;-82
2022/04/21 07:11:33;;;;;;;;;11.25;11.25;;;;;13.61;40.69;100708.28;2410232;28;45390;-84
2022/04/21 07:12:44;;;;;;;;;13.25;10.75;;;;;13.66;41.08;100701.94;2401018;28;45385;-84
2022/04/21 07:13:55;;;;;;;;;12.50;12.25;;;;;13.67;40.83;100709.81;2405364;28;46392;-84
2022/04/21 07:15:07;;;;;;;;;13.25;12.50;;;;;13.70;40.59;100707.00;2406021;28;45442;-83
2022/04/21 07:16:18;;;;;;;;;9.75;9.50;;;;;13.72;41.36;100699.88;2407999;28;46921;-84
2022/04/21 07:17:29;;;;;;;;;9.75;9.00;;;;;13.75;40.87;100703.31;2401033;28;44835;-85
2022/04/21 07:18:39;;;;;;;;;11.25;9.50;;;;;13.77;40.55;100706.72;2395486;28;46679;-85
2022/04/21 07:19:49;;;;;;;;;13.25;11.00;;;;;13.80;41.40;100711.88;2403955;28;44755;-85
2022/04/21 07:21:01;;;;;;;;;13.00;10.50;;;;;13.84;40.78;100708.16;2410573;28;45559;-85
2022/04/21 07:22:12;;;;;;;;;14.75;10.25;;;;;13.84;40.55;100708.16;2397021;28;45351;-84
2022/04/21 07:23:22;;;;;;;;;11.75;11.00;;;;;13.87;40.36;100707.16;2402380;28;46577;-86
2022/04/21 07:24:32;;;;;;;;;13.50;13.50;;;;;13.87;40.13;100697.44;2407509;28;45532;-85
2022/04/21 07:25:43;;;;;;;;;9.25;7.50;;;;;13.89;41.18;100706.16;2408661;28;46280;-85
2022/04/21 07:26:53;;;;;;;;;13.00;10.00;;;;;13.92;40.47;100711.28;2400340;28;45336;-84
2022/04/21 07:28:04;;;;;;;;;11.25;9.25;;;;;13.95;40.61;100710.28;2404491;28;46345;-85
2022/04/21 07:29:14;;;;;;;;;10.50;10.25;;;;;13.97;40.54;100713.72;2400360;28;45343;-85
2022/04/21 07:30:24;;;;;;;;;11.75;9.50;;;;;13.99;40.46;100706.56;2397940;28;45373;-85
2022/04/21 07:31:35;;;;;;;;;11.00;10.25;;;;;14.01;40.33;100709.13;2405889;28;44733;-85
2022/04/21 07:32:45;;;;;;;;;13.25;11.50;;;;;14.02;40.77;100705.56;2410607;28;45283;-84
2022/04/21 07:33:55;;;;;;;;;9.00;7.75;;;;;14.03;41.41;100712.53;2397227;28;45425;-85
2022/04/21 07:35:06;;;;;;;;;15.25;11.75;;;;;14.05;40.61;100705.41;2404811;28;45339;-84
2022/04/21 07:36:17;;;;;;;;;7.25;7.25;;;;;14.10;41.21;100705.19;2410600;28;45340;-84
2022/04/21 07:37:27;;;;;;;;;8.00;7.50;;;;;14.12;41.03;100698.03;2402190;28;46039;-84
2022/04/21 07:38:37;;;;;;;;;11.50;11.00;;;;;14.16;40.68;100707.53;2401828;28;45316;-84
2022/04/21 07:39:48;;;;;;;;;9.75;9.75;;;;;14.20;40.41;100708.25;2408942;28;45429;-85
2022/04/21 07:40:58;;;;;;;;;14.25;9.50;;;;;14.21;40.56;100702.88;2412238;28;45350;-84
2022/04/21 07:42:10;;;;;;;;;13.75;11.00;;;;;14.24;40.39;100701.88;2407760;28;46530;-85
2022/04/21 07:43:21;;;;;;;;;14.00;9.50;;;;;14.25;40.64;100704.44;2401874;28;45480;-84
2022/04/21 07:44:31;;;;;;;;;12.75;12.25;;;;;14.26;40.04;100708.78;2405099;28;46152;-84
2022/04/21 07:45:44;;;;;;;;;14.50;11.25;;;;;14.25;39.87;100706.22;2401362;28;46346;-84
2022/04/21 07:46:54;;;;;;;;;12.25;10.00;;;;;14.23;41.01;100697.50;2401922;28;47871;-84
2022/04/21 07:48:05;;;;;;;;;11.50;7.25;;;;;14.25;41.05;100698.28;2393762;28;45462;-86
2022/04/21 07:50:45;;;;;;;;;12.50;10.75;;;;;14.29;40.56;100699.84;2405865;28;45447;-82
2022/04/21 07:53:13;;;;;;;;;15.00;11.50;;;;;14.33;40.64;100698.75;2399361;28;47452;-83
2022/04/21 07:53:25;;;;;;;;;11.50;10.00;;;;;14.37;40.42;100704.78;2403898;28;44798;-83
2022/04/21 07:54:36;;;;;;;;;10.75;10.75;;;;;14.38;40.40;100702.03;2406126;28;46340;-84
2022/04/21 07:55:50;;;;;;;;;10.50;8.25;;;;;14.41;40.74;100708.97;2391395;28;45450;-83
2022/04/21 07:57:00;;;;;;;;;13.25;12.00;;;;;14.44;40.87;100705.31;2394456;28;47456;-83
2022/04/21 07:58:11;;;;;;;;;16.75;12.50;;;;;14.44;40.05;100705.31;2400269;28;45429;-84
2022/04/21 07:59:22;;;;;;;;;13.00;11.25;;;;;14.44;40.38;100710.59;2411166;28;46259;-83
2022/04/21 08:00:36;;;;;;;;;6.50;5.75;;;;;14.44;40.21;100705.31;2400322;28;45340;-83
2022/04/21 08:01:46;;;;;;;;;15.00;11.00;;;;;14.43;40.41;100708.88;2403849;28;45303;-83
2022/04/21 08:02:56;;;;;;;;;8.75;8.50;;;;;14.45;40.04;100713.16;2402926;28;45306;-84
2022/04/21 08:04:07;;;;;;;;;9.25;9.25;;;;;14.43;40.42;100709.75;2395754;28;46929;-83
2022/04/21 08:05:19;;;;;;;;;10.75;8.25;;;;;14.45;40.43;100704.38;2389736;28;45669;-82
2022/04/21 08:06:29;;;;;;;;;11.25;11.25;;;;;14.46;40.20;100708.72;2396295;28;46294;-84
2022/04/21 08:07:40;;;;;;;;;14.00;10.75;;;;;14.48;40.42;100701.56;2393442;28;45238;-84
2022/04/21 08:08:50;;;;;;;;;18.50;14.50;;;;;14.50;40.10;100702.34;2396364;28;45699;-83
2022/04/21 08:10:05;;;;;;;;;10.25;10.25;;;;;14.51;40.39;100706.72;2394162;28;45292;-83
2022/04/21 08:11:15;;;;;;;;;10.25;9.75;;;;;14.52;40.14;100703.13;2402968;28;45317;-82
2022/04/21 08:12:26;;;;;;;;;12.25;11.00;;;;;14.52;40.10;100708.41;2409198;28;46912;-83
2022/04/21 08:13:36;;;;;;;;;10.25;10.25;;;;;14.53;40.24;100704.84;2406408;28;46086;-83
2022/04/21 08:14:47;;;;;;;;;10.50;9.50;;;;;14.55;40.40;100708.25;2392645;28;44833;-84
2022/04/21 08:15:57;;;;;;;;;12.75;10.50;;;;;14.55;40.38;100702.97;2398625;28;47955;-82
2022/04/21 08:17:08;;;;;;;;;14.50;11.00;;;;;14.59;40.11;100709.81;2396625;28;44789;-83
2022/04/21 08:18:18;;;;;;;;;11.25;9.50;;;;;14.61;40.67;100707.97;2400037;28;45692;-82
2022/04/21 08:19:29;;;;;;;;;14.25;10.25;;;;;14.63;40.18;100706.09;2408593;28;45427;-83
2022/04/21 08:20:40;;;;;;;;;12.75;11.75;;;;;14.67;40.13;100709.44;2399793;28;48326;-83
2022/04/21 08:21:50;;;;;;;;;10.25;10.25;;;;;14.69;39.87;100704.91;2398680;28;45609;-82
2022/04/21 08:23:02;;;;;;;;;12.25;9.25;;;;;14.71;39.75;100697.78;2395577;28;48065;-83
2022/04/21 08:33:07;;;;;;;;;13.75;11.50;;;;;14.80;39.64;100704.38;2403861;28;44584;-82
2022/04/21 08:34:18;;;;;;;;;7.25;7.25;;;;;14.80;40.81;100695.56;2399122;28;46981;-82
2022/04/21 08:35:28;;;;;;;;;11.25;9.00;;;;;14.83;40.88;100696.28;2401279;28;45229;-82
2022/04/21 08:36:38;;;;;;;;;13.00;10.25;;;;;14.89;40.51;100704.88;2401838;28;47025;-82
2022/04/21 08:37:50;;;;;;;;;11.25;9.50;;;;;14.93;40.55;100699.34;2405402;28;45433;-83
2022/04/21 08:39:01;;;;;;;;;12.00;10.25;;;;;14.98;39.91;100692.94;2408078;28;46348;-82
2022/04/21 08:40:11;;;;;;;;;11.00;10.50;;;;;15.02;40.14;100700.63;2409049;28;45367;-83
2022/04/21 08:41:26;;;;;;;;;11.75;10.00;;;;;15.09;39.88;100700.34;2402747;28;46361;-82
2022/04/21 08:42:39;;;;;;;;;9.50;9.50;;;;;15.13;40.30;100705.38;2412958;28;45276;-83
2022/04/21 08:43:55;;;;;;;;;16.50;10.00;;;;;15.17;39.74;100698.13;2402301;28;47532;-83
2022/04/21 08:45:09;;;;;;;;;6.50;6.50;;;;;15.22;39.83;100696.06;2400534;28;45308;-83
2022/04/21 08:46:24;;;;;;;;;10.00;8.25;;;;;15.26;40.53;100696.78;2399998;28;46239;-83
2022/04/21 08:47:39;;;;;;;;;11.00;11.00;;;;;15.33;39.96;100700.81;2397124;28;45171;-83
2022/04/21 08:48:50;;;;;;;;;14.00;10.25;;;;;15.37;39.91;100691.75;2409285;28;46556;-83
2022/04/21 08:50:12;;;;;;;;;12.25;12.25;;;;;15.41;39.56;100690.63;2396868;28;45321;-83
2022/04/21 08:51:25;;;;;;;;;13.00;9.00;;;;;15.45;38.65;100691.34;2394383;28;46042;-84
2022/04/21 08:52:36;;;;;;;;;14.00;11.75;;;;;15.45;39.21;100687.84;2394962;28;45278;-84
2022/04/21 08:53:48;;;;;;;;;13.00;11.25;;;;;15.49;39.48;100695.53;2397203;28;45480;-84
2022/04/21 08:54:59;;;;;;;;;7.50;7.25;;;;;15.53;40.19;100701.53;2388378;28;45618;-83
2022/04/21 08:56:10;;;;;;;;;8.75;8.25;;;;;15.57;39.43;100699.53;2390757;28;46586;-82
2022/04/21 08:57:22;;;;;;;;;10.75;10.00;;;;;15.59;39.58;100698.53;2399418;28;45396;-83
2022/04/21 08:58:32;;;;;;;;;12.75;11.50;;;;;15.60;39.41;100694.94;2397865;28;46698;-84
2022/04/21 08:59:42;;;;;;;;;12.75;10.50;;;;;15.63;39.73;100697.41;2400968;28;45254;-83
2022/04/21 09:00:54;;;;;;;;;10.75;9.75;;;;;15.67;39.61;100698.09;2401061;28;46082;-83
2022/04/21 09:02:04;;;;;;;;;14.50;12.00;;;;;15.70;39.03;100703.25;2395488;28;45526;-83
2022/04/21 09:03:15;;;;;;;;;17.00;13.50;;;;;15.71;39.11;100704.94;2401033;28;45416;-83
2022/04/21 09:04:25;;;;;;;;;10.75;10.75;;;;;15.73;38.78;100705.69;2403133;28;45151;-83
2022/04/21 09:05:36;;;;;;;;;13.00;13.00;;;;;15.72;38.11;100704.00;2397889;28;45515;-84
2022/04/21 09:06:46;;;;;;;;;11.50;11.50;;;;;15.71;38.69;100707.59;2394419;28;45216;-83
2022/04/21 09:07:58;;;;;;;;;11.25;11.25;;;;;15.73;38.83;100699.53;2402666;28;46488;-83
2022/04/21 09:09:21;;;;;;;;;16.25;12.50;;;;;15.75;39.03;100702.97;2401927;28;44771;-84
2022/04/21 09:10:32;;;;;;;;;10.50;9.25;;;;;15.75;39.11;100703.81;2401204;28;45325;-84
2022/04/21 09:11:44;;;;;;;;;12.25;11.75;;;;;15.79;38.86;100693.06;2394809;28;45520;-83
2022/04/21 09:12:58;;;;;;;;;18.25;11.25;;;;;15.80;39.01;100700.94;2395079;28;46394;-83
2022/04/21 09:14:15;;;;;;;;;15.50;11.75;;;;;15.83;38.96;100699.88;2402540;28;45327;-83
2022/04/21 09:15:25;;;;;;;;;8.25;7.25;;;;;15.86;39.50;100705.88;2391508;28;48061;-83
2022/04/21 09:16:36;;;;;;;;;12.75;12.25;;;;;15.89;39.21;100696.03;2386560;28;45263;-83
2022/04/21 09:17:48;;;;;;;;;15.00;12.75;;;;;15.93;39.38;100694.91;2399828;28;47175;-83
2022/04/21 09:19:02;;;;;;;;;9.75;9.75;;;;;15.97;39.43;100689.38;2390016;28;45359;-83
2022/04/21 09:20:16;;;;;;;;;9.00;9.00;;;;;16.01;39.25;100682.09;2387273;28;47541;-84
2022/04/21 09:21:35;;;;;;;;;9.75;9.25;;;;;16.06;39.67;100684.50;2400794;28;45261;-84
2022/04/21 09:22:48;;;;;;;;;14.50;14.50;;;;;16.12;39.08;100689.47;2385267;28;47279;-84
2022/04/21 09:23:59;;;;;;;;;13.00;12.75;;;;;16.15;39.13;100680.50;2389647;28;44719;-84
2022/04/21 09:25:09;;;;;;;;;12.00;10.50;;;;;16.18;38.68;100686.47;2392465;28;47334;-84
2022/04/21 09:26:21;;;;;;;;;14.75;14.75;;;;;16.23;38.92;100680.88;2397589;28;45380;-84
2022/04/21 09:27:44;;;;;;;;;11.75;11.75;;;;;16.26;38.74;100685.16;2393412;28;45577;-84
2022/04/21 09:28:56;;;;;;;;;12.50;9.50;;;;;16.29;38.61;100677.91;2393356;28;45217;-84
2022/04/21 09:30:10;;;;;;;;;19.75;14.75;;;;;16.31;37.90;100673.34;2396350;28;48316;-85
2022/04/21 09:31:21;;;;;;;;;11.00;10.25;;;;;16.35;38.82;100683.75;2394126;28;44824;-84
2022/04/21 09:32:31;;;;;;;;;10.75;10.75;;;;;16.36;38.52;100682.81;2402720;28;45417;-84
2022/04/21 09:33:44;;;;;;;;;18.75;12.75;;;;;16.39;38.21;100674.69;2399791;28;45468;-84
2022/04/21 09:34:56;;;;;;;;;13.75;8.25;;;;;16.42;38.56;100674.53;2389734;28;48077;-84
2022/04/21 09:36:08;;;;;;;;;13.50;12.25;;;;;16.45;38.90;100684.06;2378608;28;45413;-84
2022/04/21 09:37:20;;;;;;;;;13.50;12.25;;;;;16.49;38.45;100682.97;2390090;28;46271;-84
2022/04/21 09:38:31;;;;;;;;;12.75;11.75;;;;;16.52;37.64;100673.00;2393727;28;45334;-85
2022/04/21 09:39:49;;;;;;;;;12.75;10.75;;;;;16.55;38.01;100682.59;2397220;28;46406;-84
2022/04/21 09:41:10;;;;;;;;;9.50;9.50;;;;;16.57;38.42;100671.91;2392620;28;45326;-84
2022/04/21 09:42:25;;;;;;;;;11.00;11.00;;;;;16.60;38.25;100671.69;2396833;28;45503;-84
2022/04/21 09:43:39;;;;;;;;;11.25;9.25;;;;;16.61;38.45;100668.97;2383652;28;45382;-84
2022/04/21 09:46:23;;;;;;;;;12.75;10.00;;;;;16.68;37.80;100664.16;2397642;28;45495;-84
2022/04/21 09:47:33;;;;;;;;;15.00;14.00;;;;;16.69;37.87;100657.03;2386195;28;47018;-83
2022/04/21 09:48:45;;;;;;;;;21.75;15.75;;;;;16.71;38.06;100658.66;2387795;28;45196;-84
2022/04/21 09:49:57;;;;;;;;;19.50;14.25;;;;;16.73;37.28;100651.44;2392531;28;47356;-84
2022/04/21 09:51:22;;;;;;;;;11.25;11.25;;;;;16.76;37.79;100655.72;2388751;28;44651;-84
2022/04/21 09:52:35;;;;;;;;;16.75;13.25;;;;;16.79;37.03;100660.00;2383282;28;47569;-84
2022/04/21 09:54:02;;;;;;;;;13.25;13.25;;;;;16.82;37.56;100654.47;2395133;28;45289;-84
2022/04/21 09:55:32;;;;;;;;;11.25;10.25;;;;;16.86;37.79;100654.22;2401041;28;45490;-84
2022/04/21 09:56:44;;;;;;;;;10.25;7.50;;;;;16.87;37.78;100647.94;2402730;28;45269;-84
2022/04/21 09:58:07;;;;;;;;;11.50;10.50;;;;;16.90;38.24;100646.91;2389869;28;48161;-83
2022/04/21 09:59:19;;;;;;;;;18.25;16.75;;;;;16.94;37.14;100652.91;2395651;28;45331;-83
2022/04/21 10:00:31;;;;;;;;;10.00;9.25;;;;;16.95;37.72;100646.63;2397708;28;46283;-84
2022/04/21 10:01:42;;;;;;;;;14.50;12.25;;;;;16.98;37.44;100638.47;2393030;28;44751;-85
2022/04/21 10:02:52;;;;;;;;;10.00;9.75;;;;;16.99;37.12;100642.81;2392409;28;45630;-84
2022/04/21 10:04:07;;;;;;;;;15.25;13.00;;;;;17.02;36.48;100642.63;2398482;28;44818;-84
2022/04/21 10:05:18;;;;;;;;;11.75;10.00;;;;;17.03;36.81;100638.19;2396652;28;45325;-83
2022/04/21 10:06:29;;;;;;;;;14.00;10.25;;;;;17.05;37.07;100637.16;2399634;28;45230;-83
2022/04/21 10:07:41;;;;;;;;;13.25;10.50;;;;;17.08;36.93;100638.75;2390756;28;48148;-83
2022/04/21 10:08:51;;;;;;;;;12.00;9.00;;;;;17.10;37.50;100637.72;2386097;28;45376;-83
2022/04/21 10:10:02;;;;;;;;;12.25;10.75;;;;;17.14;36.95;100641.00;2390973;28;45501;-84
2022/04/21 10:11:13;;;;;;;;;11.00;9.50;;;;;17.17;37.32;100637.34;2388392;28;45476;-83
2022/04/21 10:12:23;;;;;;;;;12.25;9.50;;;;;17.20;37.59;100638.03;2384734;28;47254;-82
2022/04/21 10:13:34;;;;;;;;;14.00;12.25;;;;;17.24;36.98;100633.34;2391588;28;44778;-81
2022/04/21 10:14:45;;;;;;;;;10.75;10.00;;;;;17.27;37.36;100632.31;2403583;28;45692;-82
2022/04/21 10:15:57;;;;;;;;;11.75;11.50;;;;;17.29;36.61;100630.41;2393265;28;44741;-82
2022/04/21 10:17:09;;;;;;;;;11.50;10.00;;;;;17.30;37.00;100622.34;2393080;28;46403;-82
2022/04/21 10:18:19;;;;;;;;;9.50;8.75;;;;;17.34;37.07;100622.13;2395041;28;45471;-82
2022/04/21 10:19:29;;;;;;;;;8.75;7.50;;;;;17.36;36.80;100630.88;2386968;28;48472;-82
2022/04/21 10:20:41;;;;;;;;;13.25;13.00;;;;;17.40;36.47;100632.38;2394045;28;44876;-82
2022/04/21 10:22:00;;;;;;;;;12.75;12.00;;;;;17.42;36.56;100625.16;2394292;28;45413;-82
2022/04/21 10:23:15;;;;;;;;;15.00;11.25;;;;;17.42;36.17;100623.38;2386777;28;45441;-83
2022/04/21 10:24:27;;;;;;;;;13.50;13.25;;;;;17.44;35.82;100623.25;2388136;28;46762;-81
2022/04/21 10:25:40;;;;;;;;;9.00;8.25;;;;;17.46;36.07;100617.88;2391025;28;44787;-82
2022/04/21 10:26:51;;;;;;;;;12.75;12.75;;;;;17.47;35.13;100620.41;2395309;28;46627;-82
2022/04/21 10:28:33;;;;;;;;;19.25;12.50;;;;;17.50;35.28;100612.25;2398410;28;45211;-82
2022/04/21 10:29:51;;;;;;;;;14.75;13.50;;;;;17.51;35.62;100605.13;2388467;28;48154;-82
2022/04/21 10:31:30;;;;;;;;;12.25;11.50;;;;;17.55;36.07;100603.97;2382532;28;45476;-82
2022/04/21 10:32:55;;;;;;;;;10.50;9.50;;;;;17.58;36.00;100611.72;2385469;28;48115;-82